sensor_id;sensor_type;location;lat;lon;timestamp;pressure;altitude;pressure_sealevel;temperature;humidity
69982;BME280;57319;56.274;43.980;2023-08-08T00:00:50;99454.75;;;18.42;76.07
69982;BME280;57319;56.274;43.980;2023-08-08T00:03:16;99451.44;;;18.39;76.28
69982;BME280;57319;56.274;43.980;2023-08-08T00:05:42;99447.22;;;18.36;76.38
69982;BME280;57319;56.274;43.980;2023-08-08T00:08:07;99450.72;;;18.35;76.51
69982;BME280;57319;56.274;43.980;2023-08-08T00:10:33;99449.19;;;18.31;77.00
69982;BME280;57319;56.274;43.980;2023-08-08T00:12:59;99454.28;;;18.34;76.74
69982;BME280;57319;56.274;43.980;2023-08-08T00:15:25;99444.84;;;18.31;76.80
69982;BME280;57319;56.274;43.980;2023-08-08T00:17:50;99443.31;;;18.27;77.11
69982;BME280;57319;56.274;43.980;2023-08-08T00:20:16;99453.03;;;18.24;77.28
69982;BME280;57319;56.274;43.980;2023-08-08T00:22:42;99449.81;;;18.19;77.42
69982;BME280;57319;56.274;43.980;2023-08-08T00:25:07;99449.69;;;18.22;77.37
69982;BME280;57319;56.274;43.980;2023-08-08T00:27:34;99442.84;;;18.19;77.62
69982;BME280;57319;56.274;43.980;2023-08-08T00:30:00;99439.38;;;18.19;77.70
69982;BME280;57319;56.274;43.980;2023-08-08T00:32:26;99443.84;;;18.17;77.85
69982;BME280;57319;56.274;43.980;2023-08-08T00:34:52;99442.00;;;18.19;77.94
69982;BME280;57319;56.274;43.980;2023-08-08T00:37:17;99443.78;;;18.18;77.94
69982;BME280;57319;56.274;43.980;2023-08-08T00:39:43;99439.53;;;18.16;78.02
69982;BME280;57319;56.274;43.980;2023-08-08T00:42:12;99438.78;;;18.13;78.12
69982;BME280;57319;56.274;43.980;2023-08-08T00:44:39;99433.63;;;18.12;78.05
69982;BME280;57319;56.274;43.980;2023-08-08T00:47:07;99444.06;;;18.12;78.33
69982;BME280;57319;56.274;43.980;2023-08-08T00:49:33;99442.47;;;18.09;78.64
69982;BME280;57319;56.274;43.980;2023-08-08T00:51:59;99441.69;;;18.07;78.42
69982;BME280;57319;56.274;43.980;2023-08-08T00:54:26;99445.28;;;18.05;78.71
69982;BME280;57319;56.274;43.980;2023-08-08T00:56:51;99437.53;;;18.03;79.08
69982;BME280;57319;56.274;43.980;2023-08-08T00:59:18;99430.78;;;17.99;79.10
69982;BME280;57319;56.274;43.980;2023-08-08T01:01:44;99424.88;;;17.95;79.34
69982;BME280;57319;56.274;43.980;2023-08-08T01:04:10;99425.03;;;17.92;79.59
69982;BME280;57319;56.274;43.980;2023-08-08T01:06:43;99429.34;;;17.93;79.40
69982;BME280;57319;56.274;43.980;2023-08-08T01:09:23;99431.16;;;17.91;79.76
69982;BME280;57319;56.274;43.980;2023-08-08T01:11:50;99436.41;;;17.90;79.80
69982;BME280;57319;56.274;43.980;2023-08-08T01:14:17;99435.66;;;17.88;80.02
69982;BME280;57319;56.274;43.980;2023-08-08T01:16:44;99438.41;;;17.85;80.05
69982;BME280;57319;56.274;43.980;2023-08-08T01:19:18;99434.19;;;17.82;80.36
69982;BME280;57319;56.274;43.980;2023-08-08T01:21:48;99435.34;;;17.76;80.64
69982;BME280;57319;56.274;43.980;2023-08-08T01:26:45;99433.47;;;17.78;80.47
69982;BME280;57319;56.274;43.980;2023-08-08T01:29:11;99427.44;;;17.78;80.67
69982;BME280;57319;56.274;43.980;2023-08-08T01:31:37;99432.56;;;17.79;80.71
69982;BME280;57319;56.274;43.980;2023-08-08T01:34:02;99437.97;;;17.75;80.94
69982;BME280;57319;56.274;43.980;2023-08-08T01:36:48;99437.22;;;17.73;81.17
69982;BME280;57319;56.274;43.980;2023-08-08T01:39:19;99437.38;;;17.70;81.45
69982;BME280;57319;56.274;43.980;2023-08-08T01:41:47;99436.66;;;17.66;81.69
69982;BME280;57319;56.274;43.980;2023-08-08T01:44:13;99428.78;;;17.68;81.68
69982;BME280;57319;56.274;43.980;2023-08-08T01:46:40;99430.47;;;17.69;81.31
69982;BME280;57319;56.274;43.980;2023-08-08T01:49:06;99418.44;;;17.66;81.71
69982;BME280;57319;56.274;43.980;2023-08-08T01:51:32;99427.88;;;17.69;81.60
69982;BME280;57319;56.274;43.980;2023-08-08T01:53:57;99425.19;;;17.70;81.53
69982;BME280;57319;56.274;43.980;2023-08-08T01:56:23;99421.84;;;17.68;81.98
69982;BME280;57319;56.274;43.980;2023-08-08T01:58:49;99423.66;;;17.66;82.15
69982;BME280;57319;56.274;43.980;2023-08-08T02:01:15;99425.44;;;17.66;82.25
69982;BME280;57319;56.274;43.980;2023-08-08T02:03:40;99422.94;;;17.62;82.55
69982;BME280;57319;56.274;43.980;2023-08-08T02:06:06;99429.84;;;17.63;82.60
69982;BME280;57319;56.274;43.980;2023-08-08T02:08:31;99429.00;;;17.63;82.76
69982;BME280;57319;56.274;43.980;2023-08-08T02:10:57;99434.22;;;17.63;82.88
69982;BME280;57319;56.274;43.980;2023-08-08T02:13:23;99433.31;;;17.64;83.04
69982;BME280;57319;56.274;43.980;2023-08-08T02:15:49;99435.84;;;17.66;82.96
69982;BME280;57319;56.274;43.980;2023-08-08T02:18:15;99437.47;;;17.68;83.04
69982;BME280;57319;56.274;43.980;2023-08-08T02:20:40;99434.69;;;17.71;82.71
69982;BME280;57319;56.274;43.980;2023-08-08T02:23:06;99434.53;;;17.74;82.61
69982;BME280;57319;56.274;43.980;2023-08-08T02:25:32;99433.63;;;17.75;82.64
69982;BME280;57319;56.274;43.980;2023-08-08T02:27:57;99426.50;;;17.79;82.66
69982;BME280;57319;56.274;43.980;2023-08-08T02:30:23;99435.81;;;17.85;82.68
69982;BME280;57319;56.274;43.980;2023-08-08T02:32:49;99427.84;;;17.88;82.43
69982;BME280;57319;56.274;43.980;2023-08-08T02:35:14;99429.47;;;17.90;82.43
69982;BME280;57319;56.274;43.980;2023-08-08T02:37:40;99427.66;;;17.92;82.50
69982;BME280;57319;56.274;43.980;2023-08-08T02:40:06;99430.88;;;17.97;82.17
69982;BME280;57319;56.274;43.980;2023-08-08T02:42:33;99437.69;;;18.00;82.22
69982;BME280;57319;56.274;43.980;2023-08-08T02:44:59;99438.31;;;18.05;82.01
69982;BME280;57319;56.274;43.980;2023-08-08T02:47:24;99436.41;;;18.09;82.07
69982;BME280;57319;56.274;43.980;2023-08-08T02:49:50;99434.56;;;18.11;81.86
69982;BME280;57319;56.274;43.980;2023-08-08T02:52:16;99432.44;;;18.19;81.81
69982;BME280;57319;56.274;43.980;2023-08-08T02:54:41;99432.13;;;18.25;81.70
69982;BME280;57319;56.274;43.980;2023-08-08T02:57:07;99439.72;;;18.30;81.45
69982;BME280;57319;56.274;43.980;2023-08-08T02:59:36;99437.72;;;18.35;81.22
69982;BME280;57319;56.274;43.980;2023-08-08T03:02:02;99442.53;;;18.43;81.11
69982;BME280;57319;56.274;43.980;2023-08-08T03:04:29;99440.56;;;18.48;80.64
69982;BME280;57319;56.274;43.980;2023-08-08T03:06:55;99445.44;;;18.54;80.74
69982;BME280;57319;56.274;43.980;2023-08-08T03:09:21;99449.41;;;18.61;80.23
69982;BME280;57319;56.274;43.980;2023-08-08T03:11:47;99449.22;;;18.66;80.02
69982;BME280;57319;56.274;43.980;2023-08-08T03:14:12;99455.88;;;18.72;79.87
69982;BME280;57319;56.274;43.980;2023-08-08T03:16:38;99453.88;;;18.77;79.61
69982;BME280;57319;56.274;43.980;2023-08-08T03:19:04;99449.19;;;18.84;79.55
69982;BME280;57319;56.274;43.980;2023-08-08T03:21:29;99445.53;;;18.88;79.33
69982;BME280;57319;56.274;43.980;2023-08-08T03:23:56;99446.91;;;18.95;78.99
69982;BME280;57319;56.274;43.980;2023-08-08T03:26:22;99443.94;;;19.01;78.67
69982;BME280;57319;56.274;43.980;2023-08-08T03:28:47;99443.63;;;19.07;78.54
69982;BME280;57319;56.274;43.980;2023-08-08T03:31:19;99451.03;;;19.15;78.12
69982;BME280;57319;56.274;43.980;2023-08-08T03:33:45;99452.41;;;19.22;77.77
69982;BME280;57319;56.274;43.980;2023-08-08T03:36:11;99445.16;;;19.27;77.50
69982;BME280;57319;56.274;43.980;2023-08-08T03:38:37;99444.03;;;19.33;77.27
69982;BME280;57319;56.274;43.980;2023-08-08T03:41:05;99442.59;;;19.43;77.05
69982;BME280;57319;56.274;43.980;2023-08-08T03:43:31;99444.00;;;19.49;76.76
69982;BME280;57319;56.274;43.980;2023-08-08T03:45:56;99453.13;;;19.58;76.86
69982;BME280;57319;56.274;43.980;2023-08-08T03:48:22;99448.38;;;19.64;76.52
69982;BME280;57319;56.274;43.980;2023-08-08T03:50:48;99449.75;;;19.72;76.18
69982;BME280;57319;56.274;43.980;2023-08-08T03:53:14;99451.84;;;19.81;75.97
69982;BME280;57319;56.274;43.980;2023-08-08T03:55:40;99455.97;;;19.85;75.68
69982;BME280;57319;56.274;43.980;2023-08-08T03:58:06;99450.34;;;19.93;75.61
69982;BME280;57319;56.274;43.980;2023-08-08T04:00:32;99449.06;;;20.00;75.33
69982;BME280;57319;56.274;43.980;2023-08-08T04:02:57;99449.47;;;20.08;74.92
69982;BME280;57319;56.274;43.980;2023-08-08T04:05:23;99450.72;;;20.17;74.89
69982;BME280;57319;56.274;43.980;2023-08-08T04:07:49;99453.06;;;20.22;74.43
69982;BME280;57319;56.274;43.980;2023-08-08T04:10:15;99457.84;;;20.29;74.26
69982;BME280;57319;56.274;43.980;2023-08-08T04:12:40;99454.97;;;20.34;74.03
69982;BME280;57319;56.274;43.980;2023-08-08T04:15:06;99452.75;;;20.42;73.43
69982;BME280;57319;56.274;43.980;2023-08-08T04:17:32;99460.31;;;20.47;73.19
69982;BME280;57319;56.274;43.980;2023-08-08T04:19:58;99451.44;;;20.49;72.73
69982;BME280;57319;56.274;43.980;2023-08-08T04:22:24;99452.81;;;20.57;72.51
69982;BME280;57319;56.274;43.980;2023-08-08T04:24:50;99455.97;;;20.62;71.89
69982;BME280;57319;56.274;43.980;2023-08-08T04:27:15;99457.25;;;20.71;72.09
69982;BME280;57319;56.274;43.980;2023-08-08T04:29:41;99452.56;;;20.76;71.75
69982;BME280;57319;56.274;43.980;2023-08-08T04:32:07;99460.88;;;20.82;71.10
69982;BME280;57319;56.274;43.980;2023-08-08T04:34:33;99460.63;;;20.87;70.96
69982;BME280;57319;56.274;43.980;2023-08-08T04:36:58;99450.78;;;20.91;70.76
69982;BME280;57319;56.274;43.980;2023-08-08T04:39:24;99450.53;;;20.95;70.84
69982;BME280;57319;56.274;43.980;2023-08-08T04:41:49;99453.31;;;21.07;70.81
69982;BME280;57319;56.274;43.980;2023-08-08T04:44:15;99449.28;;;21.15;70.30
69982;BME280;57319;56.274;43.980;2023-08-08T04:46:41;99448.16;;;21.19;70.05
69982;BME280;57319;56.274;43.980;2023-08-08T04:49:07;99453.88;;;21.26;69.93
69982;BME280;57319;56.274;43.980;2023-08-08T04:51:33;99455.16;;;21.33;69.48
69982;BME280;57319;56.274;43.980;2023-08-08T04:53:59;99449.66;;;21.38;69.51
69982;BME280;57319;56.274;43.980;2023-08-08T04:56:24;99445.41;;;21.50;68.93
69982;BME280;57319;56.274;43.980;2023-08-08T04:58:50;99452.81;;;21.58;68.54
69982;BME280;57319;56.274;43.980;2023-08-08T05:01:16;99451.59;;;21.63;68.42
69982;BME280;57319;56.274;43.980;2023-08-08T05:03:43;99465.91;;;21.72;68.11
69982;BME280;57319;56.274;43.980;2023-08-08T05:06:09;99466.78;;;21.85;68.06
69982;BME280;57319;56.274;43.980;2023-08-08T05:08:35;99460.84;;;21.96;67.77
69982;BME280;57319;56.274;43.980;2023-08-08T05:11:00;99453.44;;;22.03;67.64
69982;BME280;57319;56.274;43.980;2023-08-08T05:13:26;99457.22;;;22.12;67.45
69982;BME280;57319;56.274;43.980;2023-08-08T05:15:52;99458.53;;;22.19;67.13
69982;BME280;57319;56.274;43.980;2023-08-08T05:18:17;99456.41;;;22.24;66.47
69982;BME280;57319;56.274;43.980;2023-08-08T05:20:43;99455.09;;;22.31;66.48
69982;BME280;57319;56.274;43.980;2023-08-08T05:23:09;99456.50;;;22.37;65.86
69982;BME280;57319;56.274;43.980;2023-08-08T05:25:34;99457.53;;;22.47;66.14
69982;BME280;57319;56.274;43.980;2023-08-08T05:28:00;99458.72;;;22.56;65.81
69982;BME280;57319;56.274;43.980;2023-08-08T05:30:26;99452.22;;;22.62;65.36
69982;BME280;57319;56.274;43.980;2023-08-08T05:32:52;99460.41;;;22.70;65.18
69982;BME280;57319;56.274;43.980;2023-08-08T05:35:17;99462.31;;;22.81;65.00
69982;BME280;57319;56.274;43.980;2023-08-08T05:37:43;99457.38;;;22.89;65.07
69982;BME280;57319;56.274;43.980;2023-08-08T05:40:09;99454.09;;;22.98;63.98
69982;BME280;57319;56.274;43.980;2023-08-08T05:42:37;99463.97;;;23.08;64.05
69982;BME280;57319;56.274;43.980;2023-08-08T05:45:03;99457.28;;;23.16;63.51
69982;BME280;57319;56.274;43.980;2023-08-08T05:47:32;99452.94;;;23.28;63.02
69982;BME280;57319;56.274;43.980;2023-08-08T05:49:58;99462.03;;;23.35;62.72
69982;BME280;57319;56.274;43.980;2023-08-08T05:52:23;99452.94;;;23.41;62.42
69982;BME280;57319;56.274;43.980;2023-08-08T05:54:49;99456.78;;;23.48;61.71
69982;BME280;57319;56.274;43.980;2023-08-08T05:57:15;99451.81;;;23.57;61.54
69982;BME280;57319;56.274;43.980;2023-08-08T05:59:40;99455.78;;;23.62;61.28
69982;BME280;57319;56.274;43.980;2023-08-08T06:02:06;99457.13;;;23.68;61.47
69982;BME280;57319;56.274;43.980;2023-08-08T06:04:32;99452.91;;;23.78;61.23
69982;BME280;57319;56.274;43.980;2023-08-08T06:06:57;99458.66;;;23.83;60.33
69982;BME280;57319;56.274;43.980;2023-08-08T06:09:24;99457.47;;;23.87;59.72
69982;BME280;57319;56.274;43.980;2023-08-08T06:11:50;99452.63;;;23.94;59.82
69982;BME280;57319;56.274;43.980;2023-08-08T06:14:16;99456.59;;;24.00;59.98
69982;BME280;57319;56.274;43.980;2023-08-08T06:16:42;99444.31;;;24.00;60.29
69982;BME280;57319;56.274;43.980;2023-08-08T06:19:08;99448.28;;;24.06;60.22
69982;BME280;57319;56.274;43.980;2023-08-08T06:21:35;99449.63;;;24.12;59.82
69982;BME280;57319;56.274;43.980;2023-08-08T06:24:01;99449.25;;;24.16;59.77
69982;BME280;57319;56.274;43.980;2023-08-08T06:26:27;99442.81;;;24.20;59.48
69982;BME280;57319;56.274;43.980;2023-08-08T06:28:53;99450.59;;;24.22;59.05
69982;BME280;57319;56.274;43.980;2023-08-08T06:31:19;99448.47;;;24.27;59.06
69982;BME280;57319;56.274;43.980;2023-08-08T06:33:44;99447.03;;;24.34;59.02
69982;BME280;57319;56.274;43.980;2023-08-08T06:36:10;99447.53;;;24.39;59.10
69982;BME280;57319;56.274;43.980;2023-08-08T06:38:36;99452.56;;;24.43;58.74
69982;BME280;57319;56.274;43.980;2023-08-08T06:41:04;99442.41;;;24.49;58.10
69982;BME280;57319;56.274;43.980;2023-08-08T06:43:31;99446.63;;;24.52;57.99
69982;BME280;57319;56.274;43.980;2023-08-08T06:45:57;99442.09;;;24.54;57.56
69982;BME280;57319;56.274;43.980;2023-08-08T06:48:23;99445.84;;;24.63;57.20
69982;BME280;57319;56.274;43.980;2023-08-08T06:50:49;99445.00;;;24.62;56.84
69982;BME280;57319;56.274;43.980;2023-08-08T06:53:14;99447.41;;;24.65;56.94
69982;BME280;57319;56.274;43.980;2023-08-08T06:55:42;99438.94;;;24.73;56.81
69982;BME280;57319;56.274;43.980;2023-08-08T06:58:11;99438.94;;;24.73;56.90
69982;BME280;57319;56.274;43.980;2023-08-08T07:00:37;99441.69;;;24.83;56.89
69982;BME280;57319;56.274;43.980;2023-08-08T07:03:03;99440.38;;;24.88;56.44
69982;BME280;57319;56.274;43.980;2023-08-08T07:05:29;99442.38;;;24.96;55.97
69982;BME280;57319;56.274;43.980;2023-08-08T07:07:55;99437.84;;;24.98;55.23
69982;BME280;57319;56.274;43.980;2023-08-08T07:10:21;99427.81;;;25.03;55.38
69982;BME280;57319;56.274;43.980;2023-08-08T07:12:48;99439.03;;;25.05;55.33
69982;BME280;57319;56.274;43.980;2023-08-08T07:15:14;99434.38;;;25.09;55.12
69982;BME280;57319;56.274;43.980;2023-08-08T07:17:40;99433.19;;;25.13;54.73
69982;BME280;57319;56.274;43.980;2023-08-08T07:20:07;99441.06;;;25.24;54.56
69982;BME280;57319;56.274;43.980;2023-08-08T07:22:33;99441.56;;;25.30;53.65
69982;BME280;57319;56.274;43.980;2023-08-08T07:24:59;99443.22;;;25.31;53.46
69982;BME280;57319;56.274;43.980;2023-08-08T07:27:26;99445.00;;;25.30;53.15
69982;BME280;57319;56.274;43.980;2023-08-08T07:29:52;99445.53;;;25.35;53.29
69982;BME280;57319;56.274;43.980;2023-08-08T07:32:18;99439.75;;;25.42;53.14
69982;BME280;57319;56.274;43.980;2023-08-08T07:34:44;99431.28;;;25.38;51.91
69982;BME280;57319;56.274;43.980;2023-08-08T07:37:10;99431.28;;;25.38;52.47
69982;BME280;57319;56.274;43.980;2023-08-08T07:39:37;99432.44;;;25.45;52.87
69982;BME280;57319;56.274;43.980;2023-08-08T07:42:04;99437.25;;;25.40;52.68
69982;BME280;57319;56.274;43.980;2023-08-08T07:44:30;99436.41;;;25.39;53.01
69982;BME280;57319;56.274;43.980;2023-08-08T07:46:57;99427.66;;;25.50;52.08
69982;BME280;57319;56.274;43.980;2023-08-08T07:49:23;99429.78;;;25.56;52.45
69982;BME280;57319;56.274;43.980;2023-08-08T07:51:49;99445.59;;;25.68;52.40
69982;BME280;57319;56.274;43.980;2023-08-08T07:54:14;99435.63;;;25.71;51.20
69982;BME280;57319;56.274;43.980;2023-08-08T07:56:40;99432.50;;;25.66;50.86
69982;BME280;57319;56.274;43.980;2023-08-08T07:59:08;99438.84;;;25.75;49.84
69982;BME280;57319;56.274;43.980;2023-08-08T08:01:34;99436.44;;;25.83;49.21
69982;BME280;57319;56.274;43.980;2023-08-08T08:04:02;99440.63;;;25.86;50.55
69982;BME280;57319;56.274;43.980;2023-08-08T08:06:28;99437.47;;;25.92;50.13
69982;BME280;57319;56.274;43.980;2023-08-08T08:08:54;99433.16;;;25.91;49.67
69982;BME280;57319;56.274;43.980;2023-08-08T08:11:21;99433.59;;;25.96;48.41
69982;BME280;57319;56.274;43.980;2023-08-08T08:13:47;99427.50;;;25.96;48.57
69982;BME280;57319;56.274;43.980;2023-08-08T08:16:13;99428.06;;;25.99;48.31
69982;BME280;57319;56.274;43.980;2023-08-08T08:18:39;99428.44;;;26.06;48.58
69982;BME280;57319;56.274;43.980;2023-08-08T08:21:05;99424.34;;;26.13;49.00
69982;BME280;57319;56.274;43.980;2023-08-08T08:23:31;99427.56;;;26.17;47.03
69982;BME280;57319;56.274;43.980;2023-08-08T08:25:59;99419.38;;;26.20;47.40
69982;BME280;57319;56.274;43.980;2023-08-08T08:28:26;99418.06;;;26.26;47.07
69982;BME280;57319;56.274;43.980;2023-08-08T08:30:52;99417.06;;;26.27;48.08
69982;BME280;57319;56.274;43.980;2023-08-08T08:33:21;99416.56;;;26.33;47.87
69982;BME280;57319;56.274;43.980;2023-08-08T08:35:47;99417.72;;;26.40;48.28
69982;BME280;57319;56.274;43.980;2023-08-08T08:38:13;99406.56;;;26.36;47.77
69982;BME280;57319;56.274;43.980;2023-08-08T08:40:41;99413.94;;;26.33;47.72
69982;BME280;57319;56.274;43.980;2023-08-08T08:43:09;99413.84;;;26.44;47.63
69982;BME280;57319;56.274;43.980;2023-08-08T08:45:38;99407.66;;;26.55;46.44
69982;BME280;57319;56.274;43.980;2023-08-08T08:48:09;99403.09;;;26.57;46.18
69982;BME280;57319;56.274;43.980;2023-08-08T08:50:37;99409.22;;;26.57;46.78
69982;BME280;57319;56.274;43.980;2023-08-08T08:53:12;99407.41;;;26.58;47.27
69982;BME280;57319;56.274;43.980;2023-08-08T08:55:39;99414.09;;;26.62;47.12
69982;BME280;57319;56.274;43.980;2023-08-08T08:58:06;99405.06;;;26.65;47.40
69982;BME280;57319;56.274;43.980;2023-08-08T09:00:34;99399.81;;;26.65;46.73
69982;BME280;57319;56.274;43.980;2023-08-08T09:03:01;99393.06;;;26.72;46.70
69982;BME280;57319;56.274;43.980;2023-08-08T09:05:28;99394.91;;;26.81;46.65
69982;BME280;57319;56.274;43.980;2023-08-08T09:07:55;99398.84;;;26.97;46.80
69982;BME280;57319;56.274;43.980;2023-08-08T09:10:21;99392.03;;;26.94;45.38
69982;BME280;57319;56.274;43.980;2023-08-08T09:12:48;99385.66;;;26.97;45.07
69982;BME280;57319;56.274;43.980;2023-08-08T09:15:16;99383.00;;;26.97;44.92
69982;BME280;57319;56.274;43.980;2023-08-08T09:17:43;99388.72;;;27.02;45.27
69982;BME280;57319;56.274;43.980;2023-08-08T09:20:12;99382.50;;;27.13;45.10
69982;BME280;57319;56.274;43.980;2023-08-08T09:22:38;99385.56;;;27.08;44.82
69982;BME280;57319;56.274;43.980;2023-08-08T09:25:06;99386.41;;;27.18;44.53
69982;BME280;57319;56.274;43.980;2023-08-08T09:27:35;99382.38;;;27.14;44.79
69982;BME280;57319;56.274;43.980;2023-08-08T09:30:01;99383.50;;;27.21;45.11
69982;BME280;57319;56.274;43.980;2023-08-08T09:32:32;99377.97;;;27.24;44.85
69982;BME280;57319;56.274;43.980;2023-08-08T09:34:58;99370.44;;;27.30;44.72
69982;BME280;57319;56.274;43.980;2023-08-08T09:37:24;99377.88;;;27.36;45.09
69982;BME280;57319;56.274;43.980;2023-08-08T09:40:00;99368.75;;;27.19;45.35
69982;BME280;57319;56.274;43.980;2023-08-08T09:42:28;99376.13;;;27.15;45.82
69982;BME280;57319;56.274;43.980;2023-08-08T09:44:58;99378.47;;;27.18;44.77
69982;BME280;57319;56.274;43.980;2023-08-08T09:47:25;99372.47;;;27.06;45.13
69982;BME280;57319;56.274;43.980;2023-08-08T09:49:59;99375.41;;;27.13;44.61
69982;BME280;57319;56.274;43.980;2023-08-08T09:52:27;99375.97;;;27.17;44.43
69982;BME280;57319;56.274;43.980;2023-08-08T09:54:56;99365.72;;;27.23;44.61
69982;BME280;57319;56.274;43.980;2023-08-08T09:57:22;99362.78;;;27.26;44.60
69982;BME280;57319;56.274;43.980;2023-08-08T09:59:49;99363.22;;;27.32;44.57
69982;BME280;57319;56.274;43.980;2023-08-08T10:02:18;99363.75;;;27.35;43.78
69982;BME280;57319;56.274;43.980;2023-08-08T10:04:46;99363.38;;;27.30;44.00
69982;BME280;57319;56.274;43.980;2023-08-08T10:07:12;99358.91;;;27.31;43.98
69982;BME280;57319;56.274;43.980;2023-08-08T10:09:39;99360.16;;;27.26;44.62
69982;BME280;57319;56.274;43.980;2023-08-08T10:12:06;99359.47;;;27.24;44.60
69982;BME280;57319;56.274;43.980;2023-08-08T10:14:36;99365.28;;;27.18;44.44
69982;BME280;57319;56.274;43.980;2023-08-08T10:17:04;99362.91;;;27.15;45.09
69982;BME280;57319;56.274;43.980;2023-08-08T10:19:30;99350.53;;;27.25;44.59
69982;BME280;57319;56.274;43.980;2023-08-08T10:21:59;99353.47;;;27.32;44.44
69982;BME280;57319;56.274;43.980;2023-08-08T10:24:25;99353.13;;;27.37;44.83
69982;BME280;57319;56.274;43.980;2023-08-08T10:26:56;99349.47;;;27.38;43.77
69982;BME280;57319;56.274;43.980;2023-08-08T10:29:25;99343.66;;;27.44;43.43
69982;BME280;57319;56.274;43.980;2023-08-08T10:32:02;99345.56;;;27.32;43.66
69982;BME280;57319;56.274;43.980;2023-08-08T10:34:42;99351.88;;;27.41;43.86
69982;BME280;57319;56.274;43.980;2023-08-08T10:37:15;99344.09;;;27.49;43.49
69982;BME280;57319;56.274;43.980;2023-08-08T10:40:01;99337.66;;;27.52;41.96
69982;BME280;57319;56.274;43.980;2023-08-08T10:42:33;99339.34;;;27.63;42.27
69982;BME280;57319;56.274;43.980;2023-08-08T10:45:08;99340.44;;;27.60;42.53
69982;BME280;57319;56.274;43.980;2023-08-08T10:47:35;99348.94;;;27.64;42.87
69982;BME280;57319;56.274;43.980;2023-08-08T10:52:30;99339.22;;;27.74;41.42
69982;BME280;57319;56.274;43.980;2023-08-08T10:54:56;99340.31;;;27.81;41.40
69982;BME280;57319;56.274;43.980;2023-08-08T10:57:25;99337.81;;;27.89;41.97
69982;BME280;57319;56.274;43.980;2023-08-08T10:59:52;99345.44;;;27.92;41.85
69982;BME280;57319;56.274;43.980;2023-08-08T11:02:19;99340.59;;;27.58;41.93
69982;BME280;57319;56.274;43.980;2023-08-08T11:04:46;99336.41;;;27.56;41.89
69982;BME280;57319;56.274;43.980;2023-08-08T11:07:14;99333.66;;;27.67;41.09
69982;BME280;57319;56.274;43.980;2023-08-08T11:09:42;99335.84;;;27.82;41.45
69982;BME280;57319;56.274;43.980;2023-08-08T11:12:15;99338.22;;;27.95;41.57
69982;BME280;57319;56.274;43.980;2023-08-08T11:14:41;99341.84;;;28.03;40.66
69982;BME280;57319;56.274;43.980;2023-08-08T11:17:07;99332.03;;;28.33;39.38
69982;BME280;57319;56.274;43.980;2023-08-08T11:19:38;99329.00;;;28.56;39.71
69982;BME280;57319;56.274;43.980;2023-08-08T11:22:09;99337.09;;;28.54;40.32
69982;BME280;57319;56.274;43.980;2023-08-08T11:24:35;99337.22;;;28.63;39.87
69982;BME280;57319;56.274;43.980;2023-08-08T11:27:01;99335.59;;;28.89;38.91
69982;BME280;57319;56.274;43.980;2023-08-08T11:29:26;99322.28;;;28.99;38.83
69982;BME280;57319;56.274;43.980;2023-08-08T11:32:04;99329.31;;;29.08;39.24
69982;BME280;57319;56.274;43.980;2023-08-08T11:34:34;99333.56;;;29.01;38.74
69982;BME280;57319;56.274;43.980;2023-08-08T11:37:00;99323.53;;;29.23;38.76
69982;BME280;57319;56.274;43.980;2023-08-08T11:39:27;99323.03;;;29.55;38.05
69982;BME280;57319;56.274;43.980;2023-08-08T11:41:54;99335.47;;;30.17;36.78
69982;BME280;57319;56.274;43.980;2023-08-08T11:44:21;99330.25;;;30.34;36.46
69982;BME280;57319;56.274;43.980;2023-08-08T11:46:47;99334.94;;;30.14;36.85
69982;BME280;57319;56.274;43.980;2023-08-08T11:49:14;99334.44;;;29.92;37.72
69982;BME280;57319;56.274;43.980;2023-08-08T11:51:43;99328.41;;;29.64;37.43
69982;BME280;57319;56.274;43.980;2023-08-08T11:54:09;99326.75;;;29.26;37.52
69982;BME280;57319;56.274;43.980;2023-08-08T11:56:36;99330.50;;;29.24;38.50
69982;BME280;57319;56.274;43.980;2023-08-08T11:59:02;99330.41;;;29.16;38.37
69982;BME280;57319;56.274;43.980;2023-08-08T12:01:30;99325.69;;;29.09;38.44
69982;BME280;57319;56.274;43.980;2023-08-08T12:03:57;99328.81;;;29.05;38.32
69982;BME280;57319;56.274;43.980;2023-08-08T12:06:28;99326.91;;;29.15;37.95
69982;BME280;57319;56.274;43.980;2023-08-08T12:08:54;99330.09;;;29.19;36.98
69982;BME280;57319;56.274;43.980;2023-08-08T12:11:20;99332.91;;;29.17;37.45
69982;BME280;57319;56.274;43.980;2023-08-08T12:13:46;99332.22;;;29.15;37.73
69982;BME280;57319;56.274;43.980;2023-08-08T12:16:13;99340.00;;;29.17;37.83
69982;BME280;57319;56.274;43.980;2023-08-08T12:18:40;99338.84;;;29.01;36.86
69982;BME280;57319;56.274;43.980;2023-08-08T12:21:09;99334.84;;;28.97;37.92
69982;BME280;57319;56.274;43.980;2023-08-08T12:23:35;99335.44;;;28.91;37.77
69982;BME280;57319;56.274;43.980;2023-08-08T12:26:05;99324.19;;;28.79;38.30
69982;BME280;57319;56.274;43.980;2023-08-08T12:28:32;99332.19;;;28.69;38.49
69982;BME280;57319;56.274;43.980;2023-08-08T12:30:58;99325.94;;;28.60;37.84
69982;BME280;57319;56.274;43.980;2023-08-08T12:33:24;99322.19;;;28.63;37.89
69982;BME280;57319;56.274;43.980;2023-08-08T12:35:50;99321.59;;;28.69;37.81
69982;BME280;57319;56.274;43.980;2023-08-08T12:38:16;99332.34;;;28.68;37.12
69982;BME280;57319;56.274;43.980;2023-08-08T12:40:42;99331.47;;;28.77;37.01
69982;BME280;57319;56.274;43.980;2023-08-08T12:43:10;99312.56;;;28.90;36.79
69982;BME280;57319;56.274;43.980;2023-08-08T12:45:39;99323.91;;;29.10;35.84
69982;BME280;57319;56.274;43.980;2023-08-08T12:48:05;99330.75;;;29.31;35.30
69982;BME280;57319;56.274;43.980;2023-08-08T12:50:31;99326.81;;;29.35;35.26
69982;BME280;57319;56.274;43.980;2023-08-08T12:52:57;99326.66;;;29.08;35.43